Terminal Aerodrome Forecast
Issued by NWS Boston, MA

Home | Current Version | Previous Version | Text Only | Print | Product List | Glossary On
Versions: 1 2 3 4 5 6 7 8 9 10 11 12 13 14 15 16 17 18 19 20 21 22 23 24 25 26 27 28 29 30
000
FTUS41 KBOX 102320
TAFORH
TAF
KORH 102320Z 1100/1124 29004KT P6SM FEW250
     FM110800 36004KT P6SM SCT250
     FM111500 06005KT P6SM FEW250
     FM112000 35004KT P6SM SCT250
     FM112300 08004KT P6SM SCT060=

USA.gov is the U.S. government's official web portal to all federal, state and local government web resources and services.